DW4939 Weather Reports


Display with metric or nautical units.
time (UTC)temp
F
wind
direction
speed
MPH
gust
MPH
rain 1hr
in
rain 24hr
in
rain mn
in
humidity
%
barometer
mb
20201028032012 44 307 3.0 4.0 0.02 0.02 0.02 93 1001.8
20201028031021 44 344 5.0 7.0 0.02 0.02 0.02 92 1001.6
20201028030029 44 315 4.0 5.0 0.01 0.01 0.01 91 1001.7
20201028025008 44 313 5.0 8.0 0.01 0.01 0.01 90 1001.9
20201028024008 44 310 6.0 8.0 0.01 0.01 0.01 88 1001.7
20201028023030 45 296 5.0 7.0 0.00 0.00 0.00 86 1001.9
20201028022019 45 327 6.0 8.0 0.00 0.00 0.00 84 1001.9
20201028021026 45 279 6.0 9.0 0.00 0.00 0.00 83 1002.0
20201028020058 45 349 4.0 6.0 0.00 0.00 0.00 82 1002.0
20201028015012 45 294 6.0 10.0 0.00 0.00 0.00 82 1001.7
20201028014019 45 317 5.0 7.0 0.00 0.00 0.00 82 1002.1
20201028013030 45 308 4.0 8.0 0.00 0.00 0.00 81 1002.0
20201028012031 46 299 5.0 8.0 0.00 0.00 0.00 80 1002.1
20201028011021 46 312 3.0 8.0 0.00 0.00 0.00 79 1002.3
20201028010024 46 348 4.0 6.0 0.00 0.00 0.00 81 1002.1
20201028005009 45 343 4.0 5.0 0.00 0.00 0.00 81 1002.2
20201028004008 45 336 4.0 5.0 0.00 0.00 0.00 81 1002.2
20201028003021 45 347 3.0 5.0 0.00 0.00 0.00 82 1002.2
20201028002014 45 270 5.0 8.0 0.00 0.00 0.00 82 1002.2
20201028001038 45 338 3.0 4.0 0.00 0.00 0.00 82 1002.4
20201028000029 45 317 4.0 4.0 0.00 0.00 0.00 83 1002.4
20201027235009 44 295 3.0 6.0 0.00 0.00 0.00 84 1002.5
20201027234018 44 348 0.0 2.0 0.00 0.00 0.00 84 1002.7
20201027233056 44 41 1.0 3.0 0.00 0.00 0.00 84 1002.5
20201027232012 44 20 1.0 3.0 0.00 0.00 0.00 84 1002.4
20201027231038 44 27 1.0 4.0 0.00 0.00 0.00 83 1002.8
20201027230049 44 259 3.0 6.0 0.00 0.00 0.00 84 1002.7
20201027225019 44 288 3.0 5.0 0.00 0.00 0.00 84 1002.6
20201027224033 44 287 3.0 4.0 0.00 0.00 0.00 84 1002.6
20201027223023 44 334 4.0 6.0 0.00 0.00 0.00 85 1002.7
20201027222009 44 358 4.0 7.0 0.00 0.00 0.00 85 1002.8
20201027221010 44 317 4.0 5.0 0.00 0.00 0.00 85 1002.6
20201027220033 44 322 3.0 4.0 0.00 0.00 0.00 85 1002.9
20201027215025 44 338 3.0 5.0 0.00 0.00 0.00 85 1002.7
20201027214018 44 263 3.0 5.0 0.00 0.00 0.00 84 1002.9
20201027213029 44 34 2.0 4.0 0.00 0.00 0.00 84 1002.9
20201027212022 44 301 3.0 4.0 0.00 0.00 0.00 84 1003.0
20201027211021 45 295 3.0 6.0 0.00 0.00 0.00 83 1003.1
20201027210025 45 266 4.0 8.0 0.00 0.00 0.00 83 1002.9
20201027205022 45 271 5.0 8.0 0.00 0.00 0.00 83 1002.7
20201027204025 45 334 5.0 7.0 0.00 0.00 0.00 84 1002.8
20201027203019 45 325 6.0 8.0 0.00 0.00 0.00 84 1002.8
20201027202010 45 305 4.0 5.0 0.00 0.00 0.00 84 1002.8
20201027201019 45 46 3.0 4.0 0.00 0.00 0.00 83 1002.8
20201027200023 45 296 2.0 3.0 0.00 0.00 0.00 83 1002.9
20201027195012 46 299 3.0 6.0 0.00 0.00 0.00 83 1002.6
20201027194008 46 77 1.0 3.0 0.00 0.00 0.00 82 1002.6
20201027193026 46 31 3.0 5.0 0.00 0.00 0.00 82 1002.7
20201027192022 47 298 4.0 5.0 0.00 0.00 0.00 81 1002.5
20201027191008 47 327 3.0 5.0 0.00 0.00 0.00 80 1002.7
20201027190030 47 280 6.0 8.0 0.00 0.00 0.00 80 1002.5
20201027185010 47 276 6.0 9.0 0.00 0.00 0.00 79 1002.4
20201027184009 48 271 7.0 8.0 0.00 0.00 0.00 79 1002.7
20201027183030 48 292 7.0 12.0 0.00 0.00 0.00 80 1002.5
20201027182011 48 303 6.0 9.0 0.00 0.00 0.00 79 1002.7
20201027181057 48 299 8.0 13.0 0.00 0.00 0.00 79 1002.8
20201027180021 48 312 8.0 10.0 0.00 0.00 0.00 79 1003.0
20201027175044 48 313 8.0 11.0 0.00 0.00 0.00 79 1002.8
20201027174010 48 265 8.0 11.0 0.00 0.00 0.00 80 1002.7
20201027173027 48 293 6.0 7.0 0.00 0.00 0.00 81 1002.6
20201027172022 47 288 4.0 5.0 0.00 0.00 0.00 80 1002.8
20201027171023 48 93 4.0 4.0 0.00 0.00 0.00 79 1002.7
20201027170028 48 300 4.0 4.0 0.00 0.00 0.00 77 1002.6
20201027165013 48 304 4.0 6.0 0.00 0.00 0.00 76 1002.6
20201027164020 49 326 5.0 8.0 0.00 0.00 0.00 75 1002.4
20201027163026 49 331 6.0 9.0 0.00 0.00 0.00 74 1002.5
20201027162023 49 284 6.0 8.0 0.00 0.00 0.00 74 1002.6
20201027161018 50 306 8.0 11.0 0.00 0.00 0.00 73 1002.3
20201027160041 50 308 8.0 9.0 0.00 0.00 0.00 73 1002.6
20201027155018 50 313 9.0 12.0 0.00 0.00 0.00 72 1002.6
20201027154008 50 311 8.0 10.0 0.00 0.00 0.00 73 1002.4
20201027153028 50 307 8.0 12.0 0.00 0.00 0.00 74 1002.8
20201027152022 50 290 6.0 8.0 0.00 0.00 0.00 75 1002.5
20201027151012 50 282 7.0 8.0 0.00 0.00 0.00 75 1002.5
20201027150027 50 289 7.0 10.0 0.00 0.00 0.00 74 1002.5
20201027145022 50 290 7.0 10.0 0.00 0.00 0.00 75 1002.4
20201027144025 50 328 7.0 8.0 0.00 0.00 0.00 76 1002.5
20201027143025 50 308 6.0 8.0 0.00 0.00 0.00 76 1002.5
20201027142022 49 304 6.0 8.0 0.00 0.00 0.00 76 1002.5
20201027141008 50 305 8.0 11.0 0.00 0.00 0.00 75 1002.6
20201027140037 50 322 7.0 8.0 0.00 0.00 0.00 75 1002.5
20201027135008 50 296 7.0 11.0 0.00 0.00 0.00 74 1002.6
20201027134009 50 338 7.0 13.0 0.00 0.00 0.00 74 1002.5
20201027133026 50 321 7.0 11.0 0.00 0.00 0.00 74 1002.6
20201027132012 50 301 9.0 12.0 0.00 0.00 0.00 74 1002.5
20201027131010 51 276 12.0 14.0 0.00 0.00 0.00 73 1002.6
20201027130020 51 315 6.0 11.0 0.00 0.00 0.00 75 1002.8
20201027125016 50 323 8.0 11.0 0.00 0.00 0.00 74 1002.7
20201027124015 51 276 9.0 15.0 0.00 0.00 0.00 71 1002.6
20201027123022 52 323 8.0 13.0 0.00 0.00 0.00 74 1002.8
20201027122008 50 309 8.0 12.0 0.00 0.00 0.00 77 1002.8
20201027121011 49 313 6.0 8.0 0.00 0.00 0.00 78 1002.9
20201027120024 50 333 8.0 13.0 0.00 0.00 0.00 76 1003.0
20201027115011 50 305 9.0 14.0 0.00 0.00 0.00 74 1002.6
20201027114019 50 356 8.0 11.0 0.00 0.00 0.00 74 1002.7
20201027113032 51 333 6.0 9.0 0.00 0.01 0.00 75 1002.7
20201027112010 51 343 6.0 8.0 0.00 0.01 0.00 75 1002.5
20201027111009 52 274 10.0 11.0 0.00 0.01 0.00 73 1002.5
20201027110019 52 336 8.0 11.0 0.00 0.01 0.00 73 1002.6
20201027105009 52 293 5.0 7.0 0.00 0.02 0.00 79 1002.7
20201027104012 48 300 6.0 8.0 0.00 0.05 0.00 84 1002.6
20201027103021 47 302 6.0 8.0 0.00 0.09 0.00 86 1002.9
20201027102012 47 336 5.0 7.0 0.00 0.11 0.00 88 1002.9
20201027101014 46 298 6.0 10.0 0.00 0.12 0.00 89 1002.9
20201027100022 46 289 5.0 8.0 0.00 0.12 0.00 89 1002.8
20201027095009 46 325 6.0 11.0 0.00 0.12 0.00 90 1002.8
20201027094021 45 308 4.0 8.0 0.00 0.13 0.00 91 1002.6
20201027093029 45 322 4.0 8.0 0.00 0.13 0.00 91 1002.3
20201027092021 45 309 7.0 12.0 0.00 0.14 0.00 91 1002.3
20201027091009 44 295 5.0 8.0 0.00 0.14 0.00 92 1002.3
20201027090021 44 358 4.0 6.0 0.00 0.14 0.00 92 1002.5
20201027085008 45 342 3.0 4.0 0.00 0.14 0.00 92 1002.1
20201027084017 45 252 2.0 4.0 0.00 0.14 0.00 92 1001.9
20201027083029 45 294 3.0 4.0 0.00 0.14 0.00 92 1001.8
20201027082008 44 257 4.0 6.0 0.00 0.14 0.00 93 1001.9
20201027081020 44 309 2.0 3.0 0.00 0.17 0.00 93 1002.2
20201027080021 44 326 4.0 5.0 0.00 0.17 0.00 93 1001.7
20201027075010 44 335 5.0 6.0 0.00 0.18 0.00 93 1001.9
20201027074011 44 341 4.0 7.0 0.00 0.19 0.00 93 1001.9
20201027073021 44 322 4.0 6.0 0.00 0.20 0.00 93 1002.0
20201027072011 44 306 6.0 9.0 0.00 0.21 0.00 94 1002.0
20201027071019 44 273 5.0 8.0 0.00 0.21 0.00 94 1001.9
20201027070033 43 273 7.0 8.0 0.00 0.21 0.00 94 1001.8
20201027065009 43 299 6.0 8.0 0.00 0.21 0.00 94 1001.6
20201027064012 43 297 6.0 8.0 0.00 0.22 0.00 94 1001.7
20201027063024 43 299 6.0 9.0 0.00 0.22 0.00 94 1001.5
20201027062020 43 276 6.0 8.0 0.00 0.22 0.00 94 1001.4
20201027061024 43 263 6.0 9.0 0.00 0.22 0.00 95 1001.4
20201027060022 43 301 6.0 7.0 0.00 0.22 0.00 95 1001.3
20201027055017 43 283 5.0 8.0 0.00 0.22 0.00 95 1001.2
20201027054011 43 312 4.0 8.0 0.00 0.24 0.00 95 1001.1
20201027053029 43 284 5.0 10.0 0.00 0.24 0.00 95 1000.9
20201027052009 43 15 2.0 4.0 0.00 0.24 0.00 95 1000.9
20201027051010 43 358 3.0 4.0 0.00 0.24 0.00 95 1000.8
20201027050027 43 335 3.0 4.0 0.00 0.24 0.00 95 1000.6
20201027045007 43 324 4.0 5.0 0.00 0.24 0.00 94 1000.5
20201027044017 43 331 3.0 5.0 0.00 0.24 0.00 94 1000.2
20201027043031 43 306 4.0 5.0 0.00 0.24 0.00 94 1000.1
20201027042021 44 341 3.0 6.0 0.00 0.25 0.00 94 1000.3
20201027041024 44 329 5.0 8.0 0.00 0.26 0.00 95 1000.5
20201027040029 44 335 4.0 4.0 0.00 0.27 0.00 95 1000.3
20201027035025 44 327 5.0 8.0 0.00 0.28 0.00 95 1000.3
20201027034019 44 6 4.0 6.0 0.00 0.31 0.00 95 1000.3
20201027033040 44 318 5.0 8.0 0.00 0.34 0.00 95 1000.2